Time;durP1;ratioP1;P1;durP2;ratioP2;P2;SDS_P1;SDS_P2;PMS_P1;PMS_P2;Temp;Humidity;BMP_temperature;BMP_pressure;BME280_temperature;BME280_humidity;BME280_pressure;Samples;Min_cycle;Max_cycle;Signal;HPM_P1;HPM_P2
2023/03/06 00:01:19;;;;;;;10.75;5.75;;;;;;;2.18;100.00;100755.34;5247902;28;20051;-67
2023/03/06 00:03:51;;;;;;;8.63;5.25;;;;;;;2.16;100.00;100750.13;5248138;28;20041;-67
2023/03/06 00:06:23;;;;;;;7.95;5.28;;;;;;;2.15;100.00;100745.81;5245727;28;21433;-67
2023/03/06 00:08:54;;;;;;;10.38;6.10;;;;;;;2.14;100.00;100739.66;5247671;28;20047;-67
2023/03/06 00:11:25;;;;;;;9.38;5.55;;;;;;;2.13;100.00;100740.59;5244600;28;20093;-67
2023/03/06 00:13:56;;;;;;;10.10;5.63;;;;;;;2.16;100.00;100736.97;5248397;28;20126;-67
2023/03/06 00:16:28;;;;;;;12.25;5.68;;;;;;;2.16;100.00;100734.34;5247883;28;20055;-67
2023/03/06 00:18:59;;;;;;;11.43;6.28;;;;;;;2.16;100.00;100734.34;5249018;28;20058;-67
2023/03/06 00:21:30;;;;;;;9.10;5.63;;;;;;;2.17;100.00;100728.19;5247145;28;20021;-69
2023/03/06 00:24:01;;;;;;;10.00;5.72;;;;;;;2.13;100.00;100730.09;5246327;28;20086;-67
2023/03/06 00:26:34;;;;;;;10.20;6.15;;;;;;;2.12;100.00;100727.50;5252286;28;20036;-67
2023/03/06 00:29:09;;;;;;;11.55;5.97;;;;;;;2.22;100.00;100720.06;5245793;28;20054;-67
2023/03/06 00:31:43;;;;;;;;;;;;;;;2.24;100.00;100712.97;5249970;28;21562;-67
2023/03/06 00:34:14;;;;;;;10.88;6.18;;;;;;;2.14;100.00;100723.88;5247162;28;19924;-67
2023/03/06 00:36:46;;;;;;;10.18;6.43;;;;;;;2.09;100.00;100720.63;5243669;28;20029;-67
2023/03/06 00:39:17;;;;;;;10.00;6.40;;;;;;;2.06;100.00;100712.84;5247996;28;20074;-67
2023/03/06 00:41:48;;;;;;;10.88;6.75;;;;;;;2.06;100.00;100709.38;5246914;28;20041;-67
2023/03/06 00:44:20;;;;;;;12.30;6.60;;;;;;;1.98;100.00;100709.69;5245881;28;20036;-68
2023/03/06 00:46:51;;;;;;;12.70;6.50;;;;;;;2.10;100.00;100700.41;5250134;28;20430;-67
2023/03/06 00:49:22;;;;;;;10.40;7.00;;;;;;;1.96;100.00;100695.75;5245154;28;20039;-67
2023/03/06 00:51:53;;;;;;;11.32;6.38;;;;;;;1.92;100.00;100702.06;5247397;28;20040;-67
2023/03/06 00:54:25;;;;;;;11.57;7.05;;;;;;;1.87;100.00;100701.41;5242787;28;20029;-67
2023/03/06 00:56:56;;;;;;;11.18;7.47;;;;;;;1.89;100.00;100699.56;5246913;28;20059;-67
2023/03/06 00:59:27;;;;;;;11.32;7.15;;;;;;;1.80;100.00;100698.16;5244443;28;20032;-67
2023/03/06 01:01:59;;;;;;;12.85;7.53;;;;;;;1.82;100.00;100692.84;5247379;28;20033;-67
2023/03/06 01:04:30;;;;;;;12.00;8.10;;;;;;;1.76;100.00;100684.31;5248409;28;20036;-67
2023/03/06 01:07:02;;;;;;;12.07;7.40;;;;;;;1.75;100.00;100681.75;5249606;28;20032;-67
2023/03/06 01:09:33;;;;;;;13.10;7.80;;;;;;;1.84;100.00;100683.97;5250349;28;20029;-67
2023/03/06 01:12:05;;;;;;;13.60;8.48;;;;;;;1.74;100.00;100680.00;5251518;28;20037;-67
2023/03/06 01:14:36;;;;;;;13.35;8.30;;;;;;;1.64;100.00;100678.72;5248568;28;20497;-67
2023/03/06 01:17:07;;;;;;;13.68;8.38;;;;;;;1.61;100.00;100671.81;5247674;28;20571;-69
2023/03/06 01:19:39;;;;;;;13.60;8.35;;;;;;;1.56;100.00;100682.50;5248822;28;20036;-67
2023/03/06 01:22:10;;;;;;;11.93;7.70;;;;;;;1.57;100.00;100680.72;5249883;28;20040;-67
2023/03/06 01:24:41;;;;;;;13.75;8.18;;;;;;;1.53;100.00;100681.78;5248588;28;20060;-67
2023/03/06 01:27:13;;;;;;;12.60;8.38;;;;;;;1.45;100.00;100681.25;5249087;28;20466;-68
2023/03/06 01:29:44;;;;;;;12.73;8.18;;;;;;;1.43;100.00;100677.81;5247348;28;20207;-67
2023/03/06 01:32:15;;;;;;;13.02;8.43;;;;;;;1.40;100.00;100675.31;5246693;28;20040;-68
2023/03/06 01:34:48;;;;;;;13.95;8.60;;;;;;;1.39;100.00;100673.63;5245738;28;20033;-68
2023/03/06 01:37:19;;;;;;;11.82;7.63;;;;;;;1.32;100.00;100663.38;5248048;28;20044;-68
2023/03/06 01:39:50;;;;;;;13.77;8.13;;;;;;;1.24;100.00;100672.47;5248408;28;20029;-68
2023/03/06 01:42:22;;;;;;;14.38;8.23;;;;;;;1.18;100.00;100676.19;5248193;28;20055;-67
2023/03/06 01:44:57;;;;;;;14.65;8.07;;;;;;;1.12;100.00;100671.19;5247782;28;20037;-68
2023/03/06 01:47:28;;;;;;;13.60;8.07;;;;;;;1.07;100.00;100662.63;5250514;28;20037;-68
2023/03/06 01:50:02;;;;;;;17.08;9.43;;;;;;;1.05;100.00;100667.09;5246002;28;20063;-68
2023/03/06 01:52:46;;;;;;;16.08;9.23;;;;;;;1.07;100.00;100658.22;5249748;28;20051;-68
2023/03/06 01:55:22;;;;;;;14.60;9.30;;;;;;;1.03;100.00;100656.63;5249653;28;20522;-68
2023/03/06 01:57:56;;;;;;;14.50;8.85;;;;;;;1.05;100.00;100656.59;5251017;28;20083;-68
2023/03/06 02:00:29;;;;;;;13.80;8.50;;;;;;;1.00;100.00;100661.16;5248590;28;20021;-68
2023/03/06 02:03:11;;;;;;;14.38;8.95;;;;;;;1.01;100.00;100655.84;5249594;28;20028;-68
2023/03/06 02:05:44;;;;;;;15.80;9.05;;;;;;;0.94;100.00;100655.25;5249927;28;20059;-68
2023/03/06 02:08:19;;;;;;;14.55;9.07;;;;;;;0.94;100.00;100651.75;5250121;28;20450;-68
2023/03/06 02:11:04;;;;;;;12.93;8.25;;;;;;;0.92;100.00;100645.69;5245422;28;20112;-68
2023/03/06 02:13:37;;;;;;;15.82;9.27;;;;;;;0.87;100.00;100645.88;5249018;28;20750;-68
2023/03/06 02:16:09;;;;;;;14.05;8.77;;;;;;;0.90;100.00;100647.53;5249796;28;20074;-68
2023/03/06 02:18:42;;;;;;;17.60;9.20;;;;;;;0.73;100.00;100630.69;5247923;28;20037;-68
2023/03/06 02:21:27;;;;;;;13.63;7.82;;;;;;;0.68;100.00;100637.88;5249799;28;20017;-68
2023/03/06 02:24:22;;;;;;;14.88;8.52;;;;;;;0.67;100.00;100635.31;5247465;28;20106;-67
2023/03/06 02:26:55;;;;;;;16.38;9.10;;;;;;;0.67;100.00;100632.69;5248153;28;20032;-67
2023/03/06 02:29:28;;;;;;;14.27;8.05;;;;;;;0.68;100.00;100621.28;5248357;28;20135;-68
2023/03/06 02:31:59;;;;;;;15.90;8.60;;;;;;;0.63;100.00;100615.34;5247751;28;20391;-68
2023/03/06 02:34:37;;;;;;;14.05;8.70;;;;;;;0.56;100.00;100618.22;5246699;28;20035;-68
2023/03/06 02:37:09;;;;;;;14.43;9.02;;;;;;;0.53;100.00;100620.94;5243896;28;20032;-68
2023/03/06 02:39:46;;;;;;;13.23;7.45;;;;;;;0.56;100.00;100614.75;5248484;28;20032;-68
2023/03/06 02:42:24;;;;;;;15.68;8.05;;;;;;;0.50;100.00;100601.81;5246674;28;20593;-68
2023/03/06 02:44:59;;;;;;;14.52;8.90;;;;;;;0.44;100.00;100602.94;5248382;28;20033;-68
2023/03/06 02:47:30;;;;;;;13.63;8.27;;;;;;;0.48;100.00;100603.66;5247065;28;20025;-69
2023/03/06 02:50:02;;;;;;;15.25;8.30;;;;;;;0.43;100.00;100595.97;5245847;28;20032;-69
2023/03/06 02:52:33;;;;;;;15.07;8.63;;;;;;;0.35;100.00;100600.66;5246722;28;20309;-69
2023/03/06 02:55:05;;;;;;;16.40;9.02;;;;;;;0.32;100.00;100596.38;5246825;28;20095;-69
2023/03/06 02:57:36;;;;;;;15.25;8.98;;;;;;;0.22;100.00;100589.78;5246461;28;20029;-69
2023/03/06 03:00:09;;;;;;;17.10;8.48;;;;;;;0.22;100.00;100594.16;5247083;28;20029;-69
2023/03/06 03:02:40;;;;;;;15.55;8.07;;;;;;;0.19;100.00;100598.63;5250202;28;20091;-69
2023/03/06 03:05:11;;;;;;;16.70;8.73;;;;;;;0.13;100.00;100588.34;5249939;28;20029;-69
2023/03/06 03:07:43;;;;;;;15.82;7.88;;;;;;;0.20;100.00;100583.72;5249920;28;20029;-69
2023/03/06 03:10:15;;;;;;;15.95;8.80;;;;;;;0.21;100.00;100584.56;5251301;28;20025;-69
2023/03/06 03:12:46;;;;;;;16.92;9.63;;;;;;;0.13;100.00;100587.50;5249213;28;20029;-69
2023/03/06 03:15:17;;;;;;;17.58;9.35;;;;;;;0.10;100.00;100585.84;5250536;28;20066;-69
2023/03/06 03:17:49;;;;;;;17.25;9.68;;;;;;;0.13;100.00;100583.09;5251980;28;20025;-69
2023/03/06 03:20:21;;;;;;;16.45;9.63;;;;;;;0.08;100.00;100571.09;5252206;28;20530;-69
2023/03/06 03:22:54;;;;;;;17.70;9.90;;;;;;;0.18;100.00;100575.91;5251343;28;20033;-69
2023/03/06 03:25:26;;;;;;;18.45;10.20;;;;;;;0.12;100.00;100584.00;5254422;28;20060;-69
2023/03/06 03:27:57;;;;;;;17.40;9.82;;;;;;;0.03;100.00;100579.09;5252241;28;20048;-69
2023/03/06 03:30:29;;;;;;;17.65;9.82;;;;;;;0.09;100.00;100580.66;5251894;28;20029;-69
2023/03/06 03:33:00;;;;;;;16.67;9.77;;;;;;;0.05;100.00;100573.81;5252090;28;20025;-69
2023/03/06 03:35:31;;;;;;;18.92;10.80;;;;;;;0.02;100.00;100566.91;5248565;28;20387;-69
2023/03/06 03:38:03;;;;;;;19.77;10.40;;;;;;;0.03;100.00;100562.53;5250790;28;20025;-69
2023/03/06 03:40:34;;;;;;;17.75;10.10;;;;;;;0.17;100.00;100561.09;5250178;28;20368;-69
2023/03/06 03:43:05;;;;;;;18.27;10.85;;;;;;;0.14;100.00;100561.19;5253484;28;20043;-69
2023/03/06 03:45:38;;;;;;;19.65;11.05;;;;;;;0.09;100.00;100549.16;5251766;28;20493;-69
2023/03/06 03:48:10;;;;;;;19.85;10.80;;;;;;;0.08;100.00;100555.34;5254463;28;20033;-69
2023/03/06 03:50:41;;;;;;;20.88;12.88;;;;;;;0.10;100.00;100553.53;5247771;28;20071;-69
2023/03/06 03:53:12;;;;;;;20.77;11.07;;;;;;;0.05;100.00;100544.97;5248804;28;20029;-69
2023/03/06 03:55:46;;;;;;;21.23;10.60;;;;;;;0.10;100.00;100553.53;5251092;28;20887;-69
2023/03/06 03:58:17;;;;;;;21.27;11.95;;;;;;;0.16;100.00;100546.25;5254443;28;20083;-69
2023/03/06 04:00:49;;;;;;;24.45;11.90;;;;;;;0.06;100.00;100539.66;5252182;28;20024;-70
2023/03/06 04:03:20;;;;;;;22.00;12.50;;;;;;;0.08;100.00;100535.22;5249978;28;20040;-69
2023/03/06 04:05:54;;;;;;;23.05;12.77;;;;;;;0.09;100.00;100536.06;5250281;28;20142;-69
2023/03/06 04:08:26;;;;;;;24.93;13.20;;;;;;;0.05;100.00;100526.59;5252299;28;20434;-69
2023/03/06 04:10:57;;;;;;;25.67;13.43;;;;;;;0.09;100.00;100523.78;5253425;28;20664;-69
2023/03/06 04:13:29;;;;;;;25.60;13.90;;;;;;;0.11;100.00;100528.97;5252524;28;20035;-69
2023/03/06 04:16:00;;;;;;;27.42;14.10;;;;;;;0.13;100.00;100524.53;5249910;28;20029;-69
2023/03/06 04:18:32;;;;;;;26.80;14.18;;;;;;;0.02;100.00;100530.19;5248770;28;20756;-69
2023/03/06 04:21:04;;;;;;;27.90;15.35;;;;;;;0.03;100.00;100529.28;5248450;28;20112;-69
2023/03/06 04:23:35;;;;;;;25.42;13.73;;;;;;;0.08;100.00;100534.38;5249543;28;20021;-69
2023/03/06 04:26:06;;;;;;;29.63;14.85;;;;;;;0.05;100.00;100523.97;5250729;28;20067;-69
2023/03/06 04:28:37;;;;;;;28.25;15.48;;;;;;;0.08;100.00;100523.88;5249752;28;20045;-69
2023/03/06 04:31:11;;;;;;;31.20;15.45;;;;;;;0.02;100.00;100526.69;5251492;28;20098;-69
2023/03/06 04:33:42;;;;;;;30.20;16.57;;;;;;;0.03;100.00;100516.16;5251038;28;20024;-69
2023/03/06 04:36:29;;;;;;;31.25;16.02;;;;;;;0.02;100.00;100514.47;5246529;28;20290;-69
2023/03/06 04:39:01;;;;;;;31.27;15.82;;;;;;;0.01;100.00;100509.28;5249819;28;20585;-69
2023/03/06 04:41:32;;;;;;;29.40;16.48;;;;;;;0.04;100.00;100517.88;5251276;28;20025;-69
2023/03/06 04:44:03;;;;;;;33.88;16.70;;;;;;;0.03;100.00;100516.16;5248112;28;20029;-69
2023/03/06 04:46:35;;;;;;;32.20;16.27;;;;;;;0.00;100.00;100511.06;5245323;28;20025;-69
2023/03/06 04:49:06;;;;;;;35.53;18.23;;;;;;;0.02;100.00;100498.72;5242807;28;20056;-69
2023/03/06 04:51:37;;;;;;;35.70;17.90;;;;;;;0.05;100.00;100505.63;5253593;28;20045;-69
2023/03/06 04:54:09;;;;;;;35.30;18.27;;;;;;;0.13;100.00;100495.69;5253271;28;20033;-70
2023/03/06 04:56:40;;;;;;;36.35;18.67;;;;;;;0.11;100.00;100500.13;5287833;28;20044;-71
2023/03/06 04:59:11;;;;;;;41.55;20.58;;;;;;;0.12;100.00;100493.97;5251956;28;20043;-69
2023/03/06 05:01:43;;;;;;;42.25;19.52;;;;;;;0.12;100.00;100500.06;5258335;28;20036;-69
2023/03/06 05:04:14;;;;;;;40.03;19.40;;;;;;;0.12;100.00;100509.72;5248014;28;20039;-69
2023/03/06 05:06:45;;;;;;;42.78;20.25;;;;;;;0.10;100.00;100507.16;5253953;28;20044;-69
2023/03/06 05:09:16;;;;;;;38.70;18.88;;;;;;;0.14;100.00;100505.28;5251066;28;20040;-69
2023/03/06 05:11:48;;;;;;;37.92;19.67;;;;;;;0.20;100.00;100497.16;5255111;28;20029;-68
2023/03/06 05:14:19;;;;;;;44.28;20.60;;;;;;;0.17;100.00;100506.00;5252659;28;20051;-68
2023/03/06 05:16:50;;;;;;;42.20;19.85;;;;;;;0.17;100.00;100499.88;5253379;28;20039;-69
2023/03/06 05:19:22;;;;;;;47.95;21.05;;;;;;;0.18;100.00;100489.34;5246815;28;20029;-68
2023/03/06 05:21:53;;;;;;;41.72;20.20;;;;;;;0.19;100.00;100488.44;5251907;28;20025;-68
2023/03/06 05:24:25;;;;;;;42.63;20.23;;;;;;;0.31;100.00;100491.50;5248496;28;20087;-69
2023/03/06 05:26:56;;;;;;;44.47;22.08;;;;;;;0.23;100.00;100481.31;5250892;28;20642;-69
2023/03/06 05:29:27;;;;;;;43.88;20.10;;;;;;;0.26;100.00;100478.53;5253358;28;20045;-68
2023/03/06 05:31:59;;;;;;;46.08;21.35;;;;;;;0.28;100.00;100474.09;5253534;28;20048;-68
2023/03/06 05:34:30;;;;;;;47.65;21.40;;;;;;;0.30;100.00;100482.75;5251509;28;20029;-68
2023/03/06 05:37:01;;;;;;;45.22;21.85;;;;;;;0.35;100.00;100477.34;5249807;28;20031;-68
2023/03/06 05:39:33;;;;;;;42.03;20.73;;;;;;;0.33;100.00;100474.75;5250691;28;20021;-68
2023/03/06 05:42:04;;;;;;;45.25;21.80;;;;;;;0.37;100.00;100478.13;5257137;28;20036;-68
2023/03/06 05:44:36;;;;;;;46.22;21.95;;;;;;;0.44;100.00;100476.09;5255470;28;20091;-68
2023/03/06 05:47:07;;;;;;;48.90;22.85;;;;;;;0.43;100.00;100479.66;5246800;28;20531;-68
2023/03/06 05:49:39;;;;;;;48.72;21.77;;;;;;;0.38;100.00;100472.81;5243174;28;20116;-67
2023/03/06 05:52:11;;;;;;;47.17;21.92;;;;;;;0.37;100.00;100470.25;5246649;28;20036;-68
2023/03/06 05:54:42;;;;;;;48.13;22.38;;;;;;;0.41;100.00;100474.44;5253981;28;20399;-67
2023/03/06 05:57:14;;;;;;;45.13;21.98;;;;;;;0.42;100.00;100468.28;5257120;28;20041;-67
2023/03/06 05:59:46;;;;;;;49.63;22.38;;;;;;;0.44;100.00;100466.47;5254659;28;20029;-67
2023/03/06 06:02:18;;;;;;;49.63;22.80;;;;;;;0.60;100.00;100465.84;5242189;28;20066;-67
2023/03/06 06:04:49;;;;;;;49.28;22.33;;;;;;;0.48;100.00;100467.16;5245048;28;20104;-67
2023/03/06 06:07:20;;;;;;;47.22;23.08;;;;;;;0.45;100.00;100469.94;5251984;28;20479;-67
2023/03/06 06:09:52;;;;;;;45.80;22.00;;;;;;;0.48;100.00;100475.03;5251295;28;20041;-67
2023/03/06 06:12:25;;;;;;;51.45;24.23;;;;;;;0.48;100.00;100475.91;5246029;28;20040;-68
2023/03/06 06:14:56;;;;;;;49.35;23.05;;;;;;;0.49;100.00;100461.03;5251468;28;20048;-68
2023/03/06 06:17:27;;;;;;;51.28;23.30;;;;;;;0.50;100.00;100465.34;5249029;28;20033;-67
2023/03/06 06:19:59;;;;;;;48.70;22.85;;;;;;;0.56;100.00;100462.47;5247848;28;20077;-67
2023/03/06 06:22:30;;;;;;;49.33;23.95;;;;;;;0.55;100.00;100472.09;5248199;28;20997;-67
2023/03/06 06:25:01;;;;;;;53.60;24.20;;;;;;;0.56;100.00;100467.72;5253171;28;20424;-67
2023/03/06 06:27:33;;;;;;;50.45;22.90;;;;;;;0.57;100.00;100465.03;5249433;28;20057;-68
2023/03/06 06:30:05;;;;;;;50.30;23.85;;;;;;;0.58;100.00;100469.38;5255195;28;20361;-68
2023/03/06 06:32:36;;;;;;;49.47;23.58;;;;;;;0.61;100.00;100460.50;5250072;28;20556;-67
2023/03/06 06:35:09;;;;;;;46.25;23.40;;;;;;;0.63;100.00;100463.91;5251061;28;20032;-67
2023/03/06 06:37:40;;;;;;;49.03;24.17;;;;;;;0.63;100.00;100465.69;5250997;28;20032;-68
2023/03/06 06:40:12;;;;;;;52.08;24.98;;;;;;;0.63;100.00;100465.69;5246631;28;20472;-67
2023/03/06 06:42:45;;;;;;;46.90;23.13;;;;;;;0.67;100.00;100470.78;5252822;28;20600;-67
2023/03/06 06:45:17;;;;;;;49.40;22.88;;;;;;;0.69;100.00;100473.31;5242846;28;20037;-67
2023/03/06 06:47:48;;;;;;;50.45;24.63;;;;;;;0.69;100.00;100466.31;5249408;28;20716;-67
2023/03/06 06:50:20;;;;;;;51.58;25.58;;;;;;;0.72;100.00;100463.53;5246127;28;20033;-67
2023/03/06 06:52:51;;;;;;;50.63;24.48;;;;;;;0.81;100.00;100464.94;5245831;28;20143;-67
2023/03/06 06:55:22;;;;;;;56.30;25.08;;;;;;;0.80;100.00;100462.38;5240931;28;20036;-67
2023/03/06 06:57:54;;;;;;;54.20;25.92;;;;;;;0.87;100.00;100463.81;5249533;28;20028;-67
2023/03/06 07:00:25;;;;;;;52.72;24.75;;;;;;;0.88;100.00;100463.75;5246215;28;20049;-67
2023/03/06 07:02:56;;;;;;;51.95;24.83;;;;;;;0.92;100.00;100470.59;5246316;28;20040;-67
2023/03/06 07:05:28;;;;;;;57.42;26.13;;;;;;;0.97;100.00;100470.38;5250219;28;20086;-67
2023/03/06 07:07:59;;;;;;;55.03;26.67;;;;;;;0.98;100.00;100472.09;5251999;28;20029;-67
2023/03/06 07:10:31;;;;;;;52.45;25.42;;;;;;;1.03;100.00;100474.53;5248712;28;20558;-68
2023/03/06 07:13:02;;;;;;;53.47;26.45;;;;;;;1.06;100.00;100475.25;5245698;28;20028;-67
2023/03/06 07:15:33;;;;;;;61.72;26.40;;;;;;;1.07;100.00;100478.72;5250071;28;20372;-67
2023/03/06 07:18:05;;;;;;;59.05;27.08;;;;;;;1.11;100.00;100482.91;5248249;28;21039;-67
2023/03/06 07:20:36;;;;;;;59.03;26.90;;;;;;;1.11;100.00;100485.53;5251691;28;20070;-67
2023/03/06 07:23:12;;;;;;;57.08;27.67;;;;;;;1.12;100.00;100477.59;5251483;28;20510;-67
2023/03/06 07:25:43;;;;;;;60.95;27.35;;;;;;;1.15;100.00;100477.47;5249598;28;20028;-67
2023/03/06 07:28:15;;;;;;;61.20;29.25;;;;;;;1.17;100.00;100480.91;5248470;28;20844;-67
2023/03/06 07:30:46;;;;;;;61.92;28.05;;;;;;;1.23;100.00;100479.78;5250646;28;20052;-67
2023/03/06 07:33:18;;;;;;;61.33;28.55;;;;;;;1.25;100.00;100477.94;5248656;28;20652;-67
2023/03/06 07:35:49;;;;;;;61.95;29.45;;;;;;;1.26;100.00;100471.75;5242202;28;20036;-67
2023/03/06 07:38:20;;;;;;;65.90;30.55;;;;;;;1.28;100.00;100472.53;5246552;28;20031;-67
2023/03/06 07:40:52;;;;;;;58.58;28.23;;;;;;;1.32;100.00;100476.75;5248357;28;20033;-67
2023/03/06 07:43:24;;;;;;;63.15;29.25;;;;;;;1.38;100.00;100467.72;5250103;28;20032;-67
2023/03/06 07:45:58;;;;;;;63.08;29.65;;;;;;;1.45;100.00;100479.66;5251617;28;20033;-67
2023/03/06 07:48:30;;;;;;;65.70;29.92;;;;;;;1.49;100.00;100483.00;5247473;28;20032;-67
2023/03/06 07:51:07;;;;;;;60.63;28.65;;;;;;;1.53;100.00;100476.69;5251246;28;20040;-67
2023/03/06 07:53:39;;;;;;;60.25;29.88;;;;;;;1.63;100.00;100475.38;5245994;28;20479;-67
2023/03/06 07:56:11;;;;;;;60.88;29.60;;;;;;;1.62;100.00;100481.53;5252117;28;20057;-67
2023/03/06 07:58:45;;;;;;;58.75;29.13;;;;;;;1.61;100.00;100477.22;5248308;28;20060;-66
2023/03/06 08:01:22;;;;;;;60.70;29.17;;;;;;;1.62;100.00;100476.28;5247131;28;20025;-67
2023/03/06 08:03:54;;;;;;;63.17;30.02;;;;;;;1.65;100.00;100481.41;5249545;28;20182;-66
2023/03/06 08:06:26;;;;;;;61.78;28.55;;;;;;;1.65;100.00;100484.03;5249891;28;20134;-67
2023/03/06 08:08:57;;;;;;;55.85;27.30;;;;;;;1.66;100.00;100480.47;5248571;28;20424;-67
2023/03/06 08:11:29;;;;;;;57.95;28.75;;;;;;;1.68;100.00;100485.69;5245194;28;20025;-66
2023/03/06 08:14:01;;;;;;;56.30;27.90;;;;;;;1.69;100.00;100482.13;5254925;28;20040;-67
2023/03/06 08:16:32;;;;;;;58.92;28.27;;;;;;;1.74;100.00;100488.03;5253919;28;20487;-66
2023/03/06 08:19:03;;;;;;;58.78;27.77;;;;;;;1.75;100.00;100484.47;5254043;28;20446;-67
2023/03/06 08:21:35;;;;;;;53.83;26.88;;;;;;;1.80;100.00;100484.25;5250368;28;20090;-67
2023/03/06 08:24:06;;;;;;;57.22;26.98;;;;;;;1.81;100.00;100484.19;5250817;28;20057;-67
2023/03/06 08:26:38;;;;;;;53.20;26.90;;;;;;;1.87;100.00;100486.53;5251861;28;20090;-67
2023/03/06 08:29:10;;;;;;;51.35;26.63;;;;;;;1.93;100.00;100480.97;5256865;28;20044;-66
2023/03/06 08:31:44;;;;;;;51.08;25.73;;;;;;;1.93;100.00;100486.25;5253418;28;20115;-67
2023/03/06 08:34:18;;;;;;;48.22;25.60;;;;;;;1.96;100.00;100485.28;5251615;28;20029;-67
2023/03/06 08:36:50;;;;;;;54.10;27.38;;;;;;;2.00;100.00;100480.72;5255120;28;20608;-67
2023/03/06 08:39:22;;;;;;;55.67;26.67;;;;;;;2.07;100.00;100483.00;5253651;28;20143;-67
2023/03/06 08:41:53;;;;;;;48.25;23.88;;;;;;;2.11;100.00;100484.53;5254049;28;20389;-67
2023/03/06 08:44:25;;;;;;;50.55;25.90;;;;;;;2.27;100.00;100491.72;5254193;28;20567;-67
2023/03/06 08:46:56;;;;;;;51.58;26.00;;;;;;;2.31;100.00;100472.22;5252902;28;20070;-67
2023/03/06 08:49:28;;;;;;;52.45;25.67;;;;;;;2.41;100.00;100488.41;5253317;28;20025;-67
2023/03/06 08:51:59;;;;;;;45.20;24.27;;;;;;;2.47;100.00;100483.69;5252574;28;20510;-67
2023/03/06 08:54:33;;;;;;;46.83;22.95;;;;;;;2.62;100.00;100486.50;5251711;28;20033;-67
2023/03/06 08:57:05;;;;;;;45.03;23.65;;;;;;;2.64;100.00;100476.75;5254015;28;20053;-67
2023/03/06 08:59:36;;;;;;;43.85;22.30;;;;;;;2.72;100.00;100486.00;5254098;28;20111;-67
2023/03/06 09:02:11;;;;;;;41.00;21.52;;;;;;;2.79;100.00;100475.16;5250404;28;20036;-67
2023/03/06 09:04:43;;;;;;;42.00;21.30;;;;;;;2.88;100.00;100479.97;5252957;28;20064;-67
2023/03/06 09:07:14;;;;;;;42.10;22.52;;;;;;;2.96;100.00;100487.47;5250719;28;20123;-67
2023/03/06 09:09:45;;;;;;;39.53;21.73;;;;;;;3.07;100.00;100488.63;5252996;28;20107;-67
2023/03/06 09:12:17;;;;;;;42.72;22.58;;;;;;;3.14;100.00;100479.50;5253100;28;20036;-67
2023/03/06 09:14:48;;;;;;;38.15;21.20;;;;;;;3.25;100.00;100478.06;5253334;28;20498;-67
2023/03/06 09:17:20;;;;;;;40.03;21.88;;;;;;;3.25;100.00;100484.19;5251040;28;20481;-67
2023/03/06 09:19:51;;;;;;;37.35;21.85;;;;;;;3.30;100.00;100487.44;5253591;28;20032;-67
2023/03/06 09:22:22;;;;;;;36.67;21.55;;;;;;;3.37;100.00;100487.13;5250235;28;20430;-67
2023/03/06 09:24:54;;;;;;;36.72;20.00;;;;;;;3.40;100.00;100479.06;5249478;28;20580;-67
2023/03/06 09:27:27;;;;;;;38.30;20.23;;;;;;;3.43;100.00;100484.16;5252457;28;20488;-68
2023/03/06 09:29:58;;;;;;;37.75;20.15;;;;;;;3.50;100.00;100488.19;5255560;28;20112;-68
2023/03/06 09:32:29;;;;;;;35.17;20.42;;;;;;;3.59;100.00;100492.97;5254312;28;20566;-67
2023/03/06 09:35:00;;;;;;;38.20;21.58;;;;;;;3.69;100.00;100493.34;5253851;28;20510;-67
2023/03/06 09:37:32;;;;;;;37.95;21.00;;;;;;;3.67;100.00;100496.03;5251740;28;20371;-67
2023/03/06 09:40:06;;;;;;;31.42;18.70;;;;;;;3.69;100.00;100486.25;5252455;28;20025;-67
2023/03/06 09:42:37;;;;;;;31.52;18.80;;;;;;;3.72;100.00;100491.38;5251591;28;20029;-67
2023/03/06 09:45:11;;;;;;;32.33;19.02;;;;;;;3.79;100.00;100494.53;5251625;28;20041;-68
2023/03/06 09:47:52;;;;;;;34.90;19.92;;;;;;;3.79;100.00;100491.88;5249213;28;20033;-68
2023/03/06 09:50:31;;;;;;;36.40;20.30;;;;;;;3.85;100.00;100495.97;5253850;28;20044;-69
2023/03/06 09:53:14;;;;;;;31.42;18.48;;;;;;;3.90;100.00;100493.97;5251595;28;20376;-67
2023/03/06 09:55:50;;;;;;;31.15;16.83;;;;;;;3.92;100.00;100492.94;5250983;28;20540;-68
2023/03/06 09:58:27;;;;;;;27.98;16.98;;;;;;;3.93;100.00;100492.00;5249130;28;20036;-68
2023/03/06 10:01:15;;;;;;;30.73;17.17;;;;;;;3.98;100.00;100491.75;5246431;28;20132;-67
2023/03/06 10:03:56;;;;;;;23.30;13.98;;;;;;;3.99;100.00;100488.19;5246178;28;20048;-68
2023/03/06 10:06:31;;;;;;;24.42;14.98;;;;;;;4.03;100.00;100492.34;5247677;28;20973;-68
2023/03/06 10:09:26;;;;;;;27.67;15.27;;;;;;;4.12;100.00;100475.13;5244169;28;20033;-68
2023/03/06 10:12:02;;;;;;;29.42;16.42;;;;;;;4.19;100.00;100473.03;5250602;28;20033;-68
2023/03/06 10:14:42;;;;;;;27.02;16.23;;;;;;;4.28;100.00;100480.44;5251097;28;20094;-68
2023/03/06 10:17:21;;;;;;;24.95;15.43;;;;;;;4.34;100.00;100472.16;5250679;28;20119;-68
2023/03/06 10:19:53;;;;;;;21.70;14.77;;;;;;;4.38;100.00;100471.03;5250532;28;20043;-68
2023/03/06 10:22:43;;;;;;;23.45;15.07;;;;;;;4.42;100.00;100474.38;5251191;28;20035;-69
2023/03/06 10:25:26;;;;;;;25.90;16.88;;;;;;;4.53;100.00;100471.97;5250937;28;20167;-68
2023/03/06 10:28:20;;;;;;;26.95;16.55;;;;;;;4.62;100.00;100470.56;5248967;28;20045;-68
2023/03/06 10:31:09;;;;;;;23.40;14.95;;;;;;;4.69;100.00;100472.75;5252784;28;20056;-69
2023/03/06 10:33:58;;;;;;;22.65;14.07;;;;;;;4.72;100.00;100474.41;5249887;28;20055;-68
2023/03/06 10:36:29;;;;;;;23.65;14.38;;;;;;;4.75;100.00;100463.63;5249225;28;20475;-68
2023/03/06 10:39:08;;;;;;;25.92;15.65;;;;;;;4.91;100.00;100466.25;5250859;28;20130;-68
2023/03/06 10:41:39;;;;;;;28.00;16.70;;;;;;;4.92;100.00;100467.94;5252520;28;20025;-69
2023/03/06 10:44:10;;;;;;;24.45;15.38;;;;;;;4.98;100.00;100467.56;5252578;28;20027;-69
2023/03/06 10:46:45;;;;;;;22.98;15.35;;;;;;;5.00;100.00;100470.97;5253543;28;20068;-69
2023/03/06 10:49:34;;;;;;;23.17;14.60;;;;;;;5.02;100.00;100465.59;5249542;28;20036;-68
2023/03/06 10:52:20;;;;;;;22.65;13.70;;;;;;;5.08;100.00;100468.75;5254031;28;20068;-69
2023/03/06 10:54:51;;;;;;;21.10;13.55;;;;;;;5.10;100.00;100464.22;5250527;28;20483;-69
2023/03/06 10:57:30;;;;;;;21.10;13.15;;;;;;;5.16;100.00;100470.94;5244534;28;20055;-69
2023/03/06 11:00:22;;;;;;;19.58;12.57;;;;;;;5.27;100.00;100467.63;5250586;28;20024;-69
2023/03/06 11:03:23;;;;;;;19.90;12.73;;;;;;;5.27;100.00;100468.50;5247842;28;20066;-69
2023/03/06 11:06:00;;;;;;;19.17;12.30;;;;;;;5.29;100.00;100476.31;5252812;28;20438;-69
2023/03/06 11:08:32;;;;;;;20.95;12.20;;;;;;;5.29;100.00;100468.38;5245765;28;20056;-69
2023/03/06 11:11:21;;;;;;;21.10;12.98;;;;;;;5.34;100.00;100463.66;5252496;28;20021;-69
2023/03/06 11:13:57;;;;;;;19.42;12.38;;;;;;;5.34;100.00;100460.19;5246505;28;20029;-69
2023/03/06 11:16:29;;;;;;;19.42;12.57;;;;;;;5.39;100.00;100466.00;5250248;28;21750;-67
2023/03/06 11:19:05;;;;;;;18.20;12.30;;;;;;;5.46;100.00;100464.69;5245174;28;20128;-69
2023/03/06 11:21:39;;;;;;;16.60;11.52;;;;;;;5.49;100.00;100457.44;5251666;28;20103;-69
2023/03/06 11:24:18;;;;;;;19.50;12.10;;;;;;;5.57;100.00;100464.06;5251254;28;20044;-69
2023/03/06 11:26:54;;;;;;;15.55;10.80;;;;;;;5.55;100.00;100464.16;5248662;28;20033;-69
2023/03/06 11:29:37;;;;;;;17.02;10.52;;;;;;;5.56;100.00;100457.03;5250984;28;20052;-69
2023/03/06 11:32:22;;;;;;;15.85;10.10;;;;;;;5.59;100.00;100449.78;5252184;28;20035;-70
2023/03/06 11:35:00;;;;;;;;;;;;;;;5.68;100.00;100441.25;5251312;28;20028;-70
2023/03/06 11:37:31;;;;;;;17.95;10.63;;;;;;;5.54;100.00;100441.25;5239238;28;19913;-70
2023/03/06 11:40:13;;;;;;;18.27;11.05;;;;;;;5.53;100.00;100442.22;5246619;28;20051;-70